sensor_id;sensor_type;location;lat;lon;timestamp;P1;durP1;ratioP1;P2;durP2;ratioP2
77991;SDS011;67180;43.534;-5.652;2023-03-01T00:00:41;9.75;;;1.90;;
77991;SDS011;67180;43.534;-5.652;2023-03-01T00:03:11;3.67;;;1.20;;
77991;SDS011;67180;43.534;-5.652;2023-03-01T00:05:44;5.93;;;1.30;;
77991;SDS011;67180;43.534;-5.652;2023-03-01T00:08:10;6.45;;;1.80;;
77991;SDS011;67180;43.534;-5.652;2023-03-01T00:10:36;4.20;;;1.17;;
77991;SDS011;67180;43.534;-5.652;2023-03-01T00:13:03;4.32;;;1.00;;
77991;SDS011;67180;43.534;-5.652;2023-03-01T00:15:31;5.82;;;1.17;;
77991;SDS011;67180;43.534;-5.652;2023-03-01T00:17:57;2.63;;;0.90;;
77991;SDS011;67180;43.534;-5.652;2023-03-01T00:20:23;3.95;;;1.17;;
77991;SDS011;67180;43.534;-5.652;2023-03-01T00:22:49;4.20;;;1.20;;
77991;SDS011;67180;43.534;-5.652;2023-03-01T00:25:15;4.28;;;1.10;;
77991;SDS011;67180;43.534;-5.652;2023-03-01T00:27:41;3.25;;;1.00;;
77991;SDS011;67180;43.534;-5.652;2023-03-01T00:30:08;3.20;;;1.15;;
77991;SDS011;67180;43.534;-5.652;2023-03-01T00:32:34;8.13;;;1.20;;
77991;SDS011;67180;43.534;-5.652;2023-03-01T00:35:00;2.45;;;1.10;;
77991;SDS011;67180;43.534;-5.652;2023-03-01T00:37:27;2.65;;;1.05;;
77991;SDS011;67180;43.534;-5.652;2023-03-01T00:39:53;4.53;;;1.25;;
77991;SDS011;67180;43.534;-5.652;2023-03-01T00:42:19;7.68;;;1.58;;
77991;SDS011;67180;43.534;-5.652;2023-03-01T00:44:45;4.45;;;1.30;;
77991;SDS011;67180;43.534;-5.652;2023-03-01T00:47:11;8.23;;;1.35;;
77991;SDS011;67180;43.534;-5.652;2023-03-01T00:49:38;5.60;;;1.38;;
77991;SDS011;67180;43.534;-5.652;2023-03-01T00:52:05;3.15;;;1.38;;
77991;SDS011;67180;43.534;-5.652;2023-03-01T00:54:31;7.70;;;1.27;;
77991;SDS011;67180;43.534;-5.652;2023-03-01T00:56:57;9.93;;;1.63;;
77991;SDS011;67180;43.534;-5.652;2023-03-01T00:59:23;7.75;;;1.48;;
77991;SDS011;67180;43.534;-5.652;2023-03-01T01:01:50;3.85;;;1.20;;
77991;SDS011;67180;43.534;-5.652;2023-03-01T01:04:16;5.43;;;1.33;;
77991;SDS011;67180;43.534;-5.652;2023-03-01T01:06:43;4.30;;;1.17;;
77991;SDS011;67180;43.534;-5.652;2023-03-01T01:09:11;5.30;;;1.33;;
77991;SDS011;67180;43.534;-5.652;2023-03-01T01:11:42;5.53;;;1.52;;
77991;SDS011;67180;43.534;-5.652;2023-03-01T01:14:08;5.88;;;1.58;;
77991;SDS011;67180;43.534;-5.652;2023-03-01T01:16:35;9.95;;;2.10;;
77991;SDS011;67180;43.534;-5.652;2023-03-01T01:19:01;4.82;;;1.48;;
77991;SDS011;67180;43.534;-5.652;2023-03-01T01:21:29;5.55;;;1.33;;
77991;SDS011;67180;43.534;-5.652;2023-03-01T01:23:55;7.18;;;1.40;;
77991;SDS011;67180;43.534;-5.652;2023-03-01T01:26:26;5.78;;;1.55;;
77991;SDS011;67180;43.534;-5.652;2023-03-01T01:28:53;4.85;;;1.40;;
77991;SDS011;67180;43.534;-5.652;2023-03-01T01:31:19;7.97;;;1.60;;
77991;SDS011;67180;43.534;-5.652;2023-03-01T01:33:48;4.93;;;1.35;;
77991;SDS011;67180;43.534;-5.652;2023-03-01T01:36:14;3.65;;;1.17;;
77991;SDS011;67180;43.534;-5.652;2023-03-01T01:38:40;4.82;;;1.40;;
77991;SDS011;67180;43.534;-5.652;2023-03-01T01:41:07;4.78;;;1.80;;
77991;SDS011;67180;43.534;-5.652;2023-03-01T01:43:37;5.68;;;1.95;;
77991;SDS011;67180;43.534;-5.652;2023-03-01T01:46:05;7.10;;;2.95;;
77991;SDS011;67180;43.534;-5.652;2023-03-01T01:48:41;6.95;;;3.35;;
77991;SDS011;67180;43.534;-5.652;2023-03-01T01:51:10;9.23;;;2.95;;
77991;SDS011;67180;43.534;-5.652;2023-03-01T01:53:38;7.28;;;2.30;;
77991;SDS011;67180;43.534;-5.652;2023-03-01T01:56:05;5.03;;;2.00;;
77991;SDS011;67180;43.534;-5.652;2023-03-01T01:58:32;5.00;;;2.75;;
77991;SDS011;67180;43.534;-5.652;2023-03-01T02:00:59;14.55;;;5.00;;
77991;SDS011;67180;43.534;-5.652;2023-03-01T02:03:27;4.47;;;2.30;;
77991;SDS011;67180;43.534;-5.652;2023-03-01T02:06:06;5.32;;;2.53;;
77991;SDS011;67180;43.534;-5.652;2023-03-01T02:08:37;7.95;;;3.00;;
77991;SDS011;67180;43.534;-5.652;2023-03-01T02:11:04;5.57;;;2.50;;
77991;SDS011;67180;43.534;-5.652;2023-03-01T02:13:32;3.63;;;1.92;;
77991;SDS011;67180;43.534;-5.652;2023-03-01T02:18:28;5.50;;;1.83;;
77991;SDS011;67180;43.534;-5.652;2023-03-01T02:23:36;7.88;;;2.35;;
77991;SDS011;67180;43.534;-5.652;2023-03-01T02:26:11;6.60;;;2.63;;
77991;SDS011;67180;43.534;-5.652;2023-03-01T02:28:42;6.40;;;2.33;;
77991;SDS011;67180;43.534;-5.652;2023-03-01T02:31:09;4.57;;;2.42;;
77991;SDS011;67180;43.534;-5.652;2023-03-01T02:33:55;5.32;;;2.30;;
77991;SDS011;67180;43.534;-5.652;2023-03-01T02:36:23;5.70;;;2.67;;
77991;SDS011;67180;43.534;-5.652;2023-03-01T02:38:51;7.10;;;2.92;;
77991;SDS011;67180;43.534;-5.652;2023-03-01T02:41:18;5.88;;;2.97;;
77991;SDS011;67180;43.534;-5.652;2023-03-01T02:43:45;11.43;;;3.30;;
77991;SDS011;67180;43.534;-5.652;2023-03-01T02:46:15;6.65;;;3.63;;
77991;SDS011;67180;43.534;-5.652;2023-03-01T02:48:45;6.68;;;3.45;;
77991;SDS011;67180;43.534;-5.652;2023-03-01T02:51:17;6.70;;;3.75;;
77991;SDS011;67180;43.534;-5.652;2023-03-01T02:53:53;5.25;;;2.97;;
77991;SDS011;67180;43.534;-5.652;2023-03-01T02:56:21;6.43;;;2.92;;
77991;SDS011;67180;43.534;-5.652;2023-03-01T02:58:48;5.47;;;1.90;;
77991;SDS011;67180;43.534;-5.652;2023-03-01T03:01:17;7.32;;;2.63;;
77991;SDS011;67180;43.534;-5.652;2023-03-01T03:03:43;6.22;;;2.88;;
77991;SDS011;67180;43.534;-5.652;2023-03-01T03:06:09;4.03;;;2.67;;
77991;SDS011;67180;43.534;-5.652;2023-03-01T03:08:36;9.55;;;2.38;;
77991;SDS011;67180;43.534;-5.652;2023-03-01T03:11:02;7.00;;;2.38;;
77991;SDS011;67180;43.534;-5.652;2023-03-01T03:13:28;5.78;;;2.00;;
77991;SDS011;67180;43.534;-5.652;2023-03-01T03:15:55;5.60;;;2.13;;
77991;SDS011;67180;43.534;-5.652;2023-03-01T03:18:22;5.22;;;2.47;;
77991;SDS011;67180;43.534;-5.652;2023-03-01T03:20:51;5.80;;;2.75;;
77991;SDS011;67180;43.534;-5.652;2023-03-01T03:23:18;7.20;;;3.72;;
77991;SDS011;67180;43.534;-5.652;2023-03-01T03:25:44;6.63;;;3.65;;
77991;SDS011;67180;43.534;-5.652;2023-03-01T03:28:10;6.97;;;4.00;;
77991;SDS011;67180;43.534;-5.652;2023-03-01T03:30:37;7.90;;;4.38;;
77991;SDS011;67180;43.534;-5.652;2023-03-01T03:33:04;8.35;;;4.18;;
77991;SDS011;67180;43.534;-5.652;2023-03-01T03:35:32;8.30;;;4.40;;
77991;SDS011;67180;43.534;-5.652;2023-03-01T03:37:59;9.20;;;4.45;;
77991;SDS011;67180;43.534;-5.652;2023-03-01T03:40:28;8.13;;;4.60;;
77991;SDS011;67180;43.534;-5.652;2023-03-01T03:42:54;6.30;;;4.30;;
77991;SDS011;67180;43.534;-5.652;2023-03-01T03:45:21;9.68;;;4.70;;
77991;SDS011;67180;43.534;-5.652;2023-03-01T03:47:47;11.07;;;5.20;;
77991;SDS011;67180;43.534;-5.652;2023-03-01T03:50:14;8.35;;;5.00;;
77991;SDS011;67180;43.534;-5.652;2023-03-01T03:52:41;9.73;;;5.20;;
77991;SDS011;67180;43.534;-5.652;2023-03-01T03:55:07;8.82;;;5.15;;
77991;SDS011;67180;43.534;-5.652;2023-03-01T03:57:34;10.63;;;4.90;;
77991;SDS011;67180;43.534;-5.652;2023-03-01T04:00:01;9.43;;;4.63;;
77991;SDS011;67180;43.534;-5.652;2023-03-01T04:02:29;7.03;;;4.68;;
77991;SDS011;67180;43.534;-5.652;2023-03-01T04:04:56;9.93;;;4.35;;
77991;SDS011;67180;43.534;-5.652;2023-03-01T04:07:22;9.93;;;5.18;;
77991;SDS011;67180;43.534;-5.652;2023-03-01T04:09:48;9.02;;;4.43;;
77991;SDS011;67180;43.534;-5.652;2023-03-01T04:12:14;9.57;;;4.10;;
77991;SDS011;67180;43.534;-5.652;2023-03-01T04:14:45;7.57;;;4.68;;
77991;SDS011;67180;43.534;-5.652;2023-03-01T04:17:11;7.95;;;4.38;;
77991;SDS011;67180;43.534;-5.652;2023-03-01T04:19:37;8.07;;;4.78;;
77991;SDS011;67180;43.534;-5.652;2023-03-01T04:22:03;6.90;;;4.43;;
77991;SDS011;67180;43.534;-5.652;2023-03-01T04:24:34;9.07;;;4.65;;
77991;SDS011;67180;43.534;-5.652;2023-03-01T04:27:01;9.07;;;4.35;;
77991;SDS011;67180;43.534;-5.652;2023-03-01T04:29:27;9.23;;;4.63;;
77991;SDS011;67180;43.534;-5.652;2023-03-01T04:31:53;11.50;;;4.55;;
77991;SDS011;67180;43.534;-5.652;2023-03-01T04:34:19;7.55;;;4.45;;
77991;SDS011;67180;43.534;-5.652;2023-03-01T04:36:46;8.07;;;4.50;;
77991;SDS011;67180;43.534;-5.652;2023-03-01T04:39:12;7.15;;;4.20;;
77991;SDS011;67180;43.534;-5.652;2023-03-01T04:41:38;7.32;;;4.75;;
77991;SDS011;67180;43.534;-5.652;2023-03-01T04:44:05;9.65;;;4.22;;
77991;SDS011;67180;43.534;-5.652;2023-03-01T04:46:34;7.25;;;4.50;;
77991;SDS011;67180;43.534;-5.652;2023-03-01T04:49:00;8.77;;;4.38;;
77991;SDS011;67180;43.534;-5.652;2023-03-01T04:51:27;8.05;;;4.40;;
77991;SDS011;67180;43.534;-5.652;2023-03-01T04:53:53;8.00;;;4.43;;
77991;SDS011;67180;43.534;-5.652;2023-03-01T04:56:19;8.13;;;4.57;;
77991;SDS011;67180;43.534;-5.652;2023-03-01T04:58:47;12.35;;;5.28;;
77991;SDS011;67180;43.534;-5.652;2023-03-01T05:01:16;9.15;;;5.15;;
77991;SDS011;67180;43.534;-5.652;2023-03-01T05:03:44;10.25;;;4.82;;
77991;SDS011;67180;43.534;-5.652;2023-03-01T05:06:11;8.02;;;4.55;;
77991;SDS011;67180;43.534;-5.652;2023-03-01T05:08:37;5.72;;;3.78;;
77991;SDS011;67180;43.534;-5.652;2023-03-01T05:11:04;7.53;;;4.13;;
77991;SDS011;67180;43.534;-5.652;2023-03-01T05:13:30;8.45;;;4.28;;
77991;SDS011;67180;43.534;-5.652;2023-03-01T05:15:58;5.32;;;3.58;;
77991;SDS011;67180;43.534;-5.652;2023-03-01T05:18:25;8.95;;;3.90;;
77991;SDS011;67180;43.534;-5.652;2023-03-01T05:20:52;6.13;;;3.50;;
77991;SDS011;67180;43.534;-5.652;2023-03-01T05:23:21;8.90;;;4.38;;
77991;SDS011;67180;43.534;-5.652;2023-03-01T05:25:47;7.00;;;3.80;;
77991;SDS011;67180;43.534;-5.652;2023-03-01T05:28:14;6.07;;;3.80;;
77991;SDS011;67180;43.534;-5.652;2023-03-01T05:30:40;8.52;;;3.53;;
77991;SDS011;67180;43.534;-5.652;2023-03-01T05:33:07;7.18;;;3.33;;
77991;SDS011;67180;43.534;-5.652;2023-03-01T05:35:39;6.30;;;3.58;;
77991;SDS011;67180;43.534;-5.652;2023-03-01T05:38:06;8.52;;;3.80;;
77991;SDS011;67180;43.534;-5.652;2023-03-01T05:40:33;9.65;;;3.40;;
77991;SDS011;67180;43.534;-5.652;2023-03-01T05:42:59;7.47;;;3.80;;
77991;SDS011;67180;43.534;-5.652;2023-03-01T05:45:27;6.20;;;3.50;;
77991;SDS011;67180;43.534;-5.652;2023-03-01T05:47:53;7.85;;;3.92;;
77991;SDS011;67180;43.534;-5.652;2023-03-01T05:50:20;7.75;;;3.60;;
77991;SDS011;67180;43.534;-5.652;2023-03-01T05:52:48;6.80;;;3.67;;
77991;SDS011;67180;43.534;-5.652;2023-03-01T05:55:15;6.95;;;3.72;;
77991;SDS011;67180;43.534;-5.652;2023-03-01T05:57:42;6.72;;;3.25;;
77991;SDS011;67180;43.534;-5.652;2023-03-01T06:00:09;5.85;;;3.58;;
77991;SDS011;67180;43.534;-5.652;2023-03-01T06:02:36;8.52;;;3.40;;
77991;SDS011;67180;43.534;-5.652;2023-03-01T06:05:03;6.03;;;3.63;;
77991;SDS011;67180;43.534;-5.652;2023-03-01T06:07:29;5.28;;;3.38;;
77991;SDS011;67180;43.534;-5.652;2023-03-01T06:09:55;6.90;;;3.67;;
77991;SDS011;67180;43.534;-5.652;2023-03-01T06:12:22;10.30;;;3.33;;
77991;SDS011;67180;43.534;-5.652;2023-03-01T06:14:48;5.90;;;2.92;;
77991;SDS011;67180;43.534;-5.652;2023-03-01T06:17:14;5.28;;;2.95;;
77991;SDS011;67180;43.534;-5.652;2023-03-01T06:19:40;9.93;;;3.38;;
77991;SDS011;67180;43.534;-5.652;2023-03-01T06:22:06;4.95;;;3.03;;
77991;SDS011;67180;43.534;-5.652;2023-03-01T06:24:33;8.88;;;3.63;;
77991;SDS011;67180;43.534;-5.652;2023-03-01T06:26:59;5.60;;;3.65;;
77991;SDS011;67180;43.534;-5.652;2023-03-01T06:29:25;7.07;;;3.42;;
77991;SDS011;67180;43.534;-5.652;2023-03-01T06:31:52;6.00;;;2.97;;
77991;SDS011;67180;43.534;-5.652;2023-03-01T06:34:18;5.93;;;3.00;;
77991;SDS011;67180;43.534;-5.652;2023-03-01T06:36:46;6.43;;;3.13;;
77991;SDS011;67180;43.534;-5.652;2023-03-01T06:39:13;7.80;;;2.97;;
77991;SDS011;67180;43.534;-5.652;2023-03-01T06:41:39;5.82;;;2.78;;
77991;SDS011;67180;43.534;-5.652;2023-03-01T06:44:05;4.65;;;3.08;;
77991;SDS011;67180;43.534;-5.652;2023-03-01T06:46:31;8.98;;;3.40;;
77991;SDS011;67180;43.534;-5.652;2023-03-01T06:48:58;6.32;;;3.20;;
77991;SDS011;67180;43.534;-5.652;2023-03-01T06:51:24;9.15;;;3.47;;
77991;SDS011;67180;43.534;-5.652;2023-03-01T06:53:50;8.30;;;3.33;;
77991;SDS011;67180;43.534;-5.652;2023-03-01T06:56:16;6.07;;;3.20;;
77991;SDS011;67180;43.534;-5.652;2023-03-01T06:58:42;7.95;;;3.80;;
77991;SDS011;67180;43.534;-5.652;2023-03-01T07:01:08;9.77;;;3.42;;
77991;SDS011;67180;43.534;-5.652;2023-03-01T07:03:36;7.00;;;3.47;;
77991;SDS011;67180;43.534;-5.652;2023-03-01T07:06:03;8.82;;;3.80;;
77991;SDS011;67180;43.534;-5.652;2023-03-01T07:08:29;7.68;;;3.58;;
77991;SDS011;67180;43.534;-5.652;2023-03-01T07:10:56;8.80;;;4.05;;
77991;SDS011;67180;43.534;-5.652;2023-03-01T07:13:22;7.95;;;4.05;;
77991;SDS011;67180;43.534;-5.652;2023-03-01T07:15:48;11.15;;;4.43;;
77991;SDS011;67180;43.534;-5.652;2023-03-01T07:18:14;9.43;;;4.72;;
77991;SDS011;67180;43.534;-5.652;2023-03-01T07:20:40;8.80;;;5.50;;
77991;SDS011;67180;43.534;-5.652;2023-03-01T07:23:06;11.45;;;5.50;;
77991;SDS011;67180;43.534;-5.652;2023-03-01T07:25:33;14.85;;;6.63;;
77991;SDS011;67180;43.534;-5.652;2023-03-01T07:27:59;12.60;;;6.47;;
77991;SDS011;67180;43.534;-5.652;2023-03-01T07:30:25;15.95;;;7.70;;
77991;SDS011;67180;43.534;-5.652;2023-03-01T07:32:53;11.52;;;5.53;;
77991;SDS011;67180;43.534;-5.652;2023-03-01T07:35:20;15.38;;;7.78;;
77991;SDS011;67180;43.534;-5.652;2023-03-01T07:37:46;11.77;;;4.82;;
77991;SDS011;67180;43.534;-5.652;2023-03-01T07:40:21;14.68;;;7.28;;
77991;SDS011;67180;43.534;-5.652;2023-03-01T07:42:48;8.80;;;5.22;;
77991;SDS011;67180;43.534;-5.652;2023-03-01T07:45:14;18.88;;;8.60;;
77991;SDS011;67180;43.534;-5.652;2023-03-01T07:47:40;14.38;;;6.30;;
77991;SDS011;67180;43.534;-5.652;2023-03-01T07:50:06;13.55;;;6.57;;
77991;SDS011;67180;43.534;-5.652;2023-03-01T07:52:33;15.32;;;7.45;;
77991;SDS011;67180;43.534;-5.652;2023-03-01T07:54:59;11.68;;;6.25;;
77991;SDS011;67180;43.534;-5.652;2023-03-01T07:57:25;13.32;;;6.25;;
77991;SDS011;67180;43.534;-5.652;2023-03-01T07:59:51;15.40;;;8.32;;
77991;SDS011;67180;43.534;-5.652;2023-03-01T08:02:17;11.15;;;6.47;;
77991;SDS011;67180;43.534;-5.652;2023-03-01T08:04:44;11.68;;;6.68;;
77991;SDS011;67180;43.534;-5.652;2023-03-01T08:07:10;13.93;;;6.82;;
77991;SDS011;67180;43.534;-5.652;2023-03-01T08:09:36;10.02;;;6.30;;
77991;SDS011;67180;43.534;-5.652;2023-03-01T08:12:03;9.93;;;6.40;;
77991;SDS011;67180;43.534;-5.652;2023-03-01T08:14:30;13.30;;;6.53;;
77991;SDS011;67180;43.534;-5.652;2023-03-01T08:16:56;11.00;;;6.38;;
77991;SDS011;67180;43.534;-5.652;2023-03-01T08:19:22;8.65;;;5.15;;
77991;SDS011;67180;43.534;-5.652;2023-03-01T08:21:48;9.75;;;5.38;;
77991;SDS011;67180;43.534;-5.652;2023-03-01T08:24:16;12.00;;;5.65;;
77991;SDS011;67180;43.534;-5.652;2023-03-01T08:26:42;9.65;;;5.82;;
77991;SDS011;67180;43.534;-5.652;2023-03-01T08:29:08;10.93;;;5.20;;
77991;SDS011;67180;43.534;-5.652;2023-03-01T08:31:36;7.25;;;4.97;;
77991;SDS011;67180;43.534;-5.652;2023-03-01T08:34:03;7.15;;;4.50;;
77991;SDS011;67180;43.534;-5.652;2023-03-01T08:36:31;8.00;;;5.40;;
77991;SDS011;67180;43.534;-5.652;2023-03-01T08:38:57;17.13;;;5.50;;
77991;SDS011;67180;43.534;-5.652;2023-03-01T08:41:24;9.60;;;4.93;;
77991;SDS011;67180;43.534;-5.652;2023-03-01T08:43:50;10.40;;;4.85;;
77991;SDS011;67180;43.534;-5.652;2023-03-01T08:46:17;10.68;;;4.57;;
77991;SDS011;67180;43.534;-5.652;2023-03-01T08:48:43;10.68;;;4.70;;
77991;SDS011;67180;43.534;-5.652;2023-03-01T08:51:14;11.68;;;4.72;;
77991;SDS011;67180;43.534;-5.652;2023-03-01T08:53:41;13.10;;;5.20;;
77991;SDS011;67180;43.534;-5.652;2023-03-01T08:56:08;12.98;;;4.70;;
77991;SDS011;67180;43.534;-5.652;2023-03-01T08:58:35;15.88;;;5.55;;
77991;SDS011;67180;43.534;-5.652;2023-03-01T09:01:06;11.85;;;5.68;;
77991;SDS011;67180;43.534;-5.652;2023-03-01T09:03:32;13.15;;;6.20;;
77991;SDS011;67180;43.534;-5.652;2023-03-01T09:06:00;17.50;;;6.10;;
77991;SDS011;67180;43.534;-5.652;2023-03-01T09:08:26;14.80;;;6.75;;
77991;SDS011;67180;43.534;-5.652;2023-03-01T09:10:54;19.58;;;7.05;;
77991;SDS011;67180;43.534;-5.652;2023-03-01T09:13:20;12.95;;;7.22;;
77991;SDS011;67180;43.534;-5.652;2023-03-01T09:15:49;27.67;;;12.73;;
77991;SDS011;67180;43.534;-5.652;2023-03-01T09:18:17;33.17;;;18.33;;
77991;SDS011;67180;43.534;-5.652;2023-03-01T09:20:43;31.48;;;18.48;;
77991;SDS011;67180;43.534;-5.652;2023-03-01T09:23:09;26.25;;;14.48;;
77991;SDS011;67180;43.534;-5.652;2023-03-01T09:25:36;31.83;;;16.83;;
77991;SDS011;67180;43.534;-5.652;2023-03-01T09:28:02;31.10;;;17.30;;
77991;SDS011;67180;43.534;-5.652;2023-03-01T09:30:28;34.55;;;18.95;;
77991;SDS011;67180;43.534;-5.652;2023-03-01T09:32:56;25.63;;;14.05;;
77991;SDS011;67180;43.534;-5.652;2023-03-01T09:35:22;25.15;;;15.60;;
77991;SDS011;67180;43.534;-5.652;2023-03-01T09:37:49;24.58;;;13.90;;
77991;SDS011;67180;43.534;-5.652;2023-03-01T09:40:16;16.63;;;11.43;;
77991;SDS011;67180;43.534;-5.652;2023-03-01T09:42:47;18.90;;;11.73;;
77991;SDS011;67180;43.534;-5.652;2023-03-01T09:45:26;18.25;;;11.05;;
77991;SDS011;67180;43.534;-5.652;2023-03-01T09:47:54;18.20;;;9.52;;
77991;SDS011;67180;43.534;-5.652;2023-03-01T09:50:21;21.15;;;11.48;;
77991;SDS011;67180;43.534;-5.652;2023-03-01T09:53:04;19.08;;;11.05;;
77991;SDS011;67180;43.534;-5.652;2023-03-01T09:55:34;17.35;;;9.80;;
77991;SDS011;67180;43.534;-5.652;2023-03-01T09:58:12;19.15;;;11.48;;
77991;SDS011;67180;43.534;-5.652;2023-03-01T10:00:49;19.45;;;11.60;;
77991;SDS011;67180;43.534;-5.652;2023-03-01T10:03:25;13.80;;;8.00;;
77991;SDS011;67180;43.534;-5.652;2023-03-01T10:05:57;18.20;;;9.88;;
77991;SDS011;67180;43.534;-5.652;2023-03-01T10:11:08;9.43;;;5.55;;
77991;SDS011;67180;43.534;-5.652;2023-03-01T10:13:48;10.60;;;5.93;;
77991;SDS011;67180;43.534;-5.652;2023-03-01T10:19:05;15.63;;;7.60;;
77991;SDS011;67180;43.534;-5.652;2023-03-01T10:21:36;11.75;;;6.38;;
77991;SDS011;67180;43.534;-5.652;2023-03-01T10:24:09;12.73;;;7.50;;
77991;SDS011;67180;43.534;-5.652;2023-03-01T10:26:44;8.68;;;4.55;;
77991;SDS011;67180;43.534;-5.652;2023-03-01T10:29:12;6.55;;;5.15;;
77991;SDS011;67180;43.534;-5.652;2023-03-01T10:31:45;4.53;;;3.55;;
77991;SDS011;67180;43.534;-5.652;2023-03-01T10:34:14;6.43;;;3.25;;
77991;SDS011;67180;43.534;-5.652;2023-03-01T10:36:41;4.00;;;3.22;;
77991;SDS011;67180;43.534;-5.652;2023-03-01T10:39:13;4.47;;;3.10;;
77991;SDS011;67180;43.534;-5.652;2023-03-01T10:41:51;7.22;;;3.05;;
77991;SDS011;67180;43.534;-5.652;2023-03-01T10:44:34;3.97;;;2.85;;
77991;SDS011;67180;43.534;-5.652;2023-03-01T10:47:01;4.60;;;2.90;;
77991;SDS011;67180;43.534;-5.652;2023-03-01T10:49:27;7.28;;;3.05;;
77991;SDS011;67180;43.534;-5.652;2023-03-01T10:51:53;3.38;;;2.85;;
77991;SDS011;67180;43.534;-5.652;2023-03-01T10:54:29;4.68;;;3.35;;
77991;SDS011;67180;43.534;-5.652;2023-03-01T10:56:58;5.82;;;3.38;;
77991;SDS011;67180;43.534;-5.652;2023-03-01T10:59:28;5.07;;;3.45;;
77991;SDS011;67180;43.534;-5.652;2023-03-01T11:04:33;4.82;;;3.90;;
77991;SDS011;67180;43.534;-5.652;2023-03-01T11:07:00;4.20;;;3.40;;
77991;SDS011;67180;43.534;-5.652;2023-03-01T11:09:29;7.47;;;4.38;;
77991;SDS011;67180;43.534;-5.652;2023-03-01T11:12:03;4.43;;;3.30;;
77991;SDS011;67180;43.534;-5.652;2023-03-01T11:14:33;6.50;;;3.95;;
77991;SDS011;67180;43.534;-5.652;2023-03-01T11:17:03;6.82;;;4.45;;
77991;SDS011;67180;43.534;-5.652;2023-03-01T11:19:29;9.45;;;4.45;;
77991;SDS011;67180;43.534;-5.652;2023-03-01T11:22:04;5.60;;;4.10;;
77991;SDS011;67180;43.534;-5.652;2023-03-01T11:24:48;6.97;;;4.70;;
77991;SDS011;67180;43.534;-5.652;2023-03-01T11:27:24;5.60;;;4.22;;
77991;SDS011;67180;43.534;-5.652;2023-03-01T11:29:54;7.05;;;4.43;;
77991;SDS011;67180;43.534;-5.652;2023-03-01T11:32:23;8.10;;;4.95;;
77991;SDS011;67180;43.534;-5.652;2023-03-01T11:34:53;8.57;;;4.95;;
77991;SDS011;67180;43.534;-5.652;2023-03-01T11:37:22;4.97;;;3.85;;
77991;SDS011;67180;43.534;-5.652;2023-03-01T11:39:54;7.25;;;4.80;;
77991;SDS011;67180;43.534;-5.652;2023-03-01T11:42:44;9.27;;;5.22;;
77991;SDS011;67180;43.534;-5.652;2023-03-01T11:45:10;8.32;;;4.45;;
77991;SDS011;67180;43.534;-5.652;2023-03-01T11:53:01;6.32;;;4.70;;
77991;SDS011;67180;43.534;-5.652;2023-03-01T11:55:47;6.95;;;3.90;;
77991;SDS011;67180;43.534;-5.652;2023-03-01T12:03:39;10.45;;;5.15;;
77991;SDS011;67180;43.534;-5.652;2023-03-01T12:09:16;11.95;;;6.00;;
77991;SDS011;67180;43.534;-5.652;2023-03-01T12:11:47;18.40;;;13.05;;
77991;SDS011;67180;43.534;-5.652;2023-03-01T12:14:22;5.78;;;3.60;;
77991;SDS011;67180;43.534;-5.652;2023-03-01T12:17:10;6.78;;;3.20;;
77991;SDS011;67180;43.534;-5.652;2023-03-01T12:19:43;4.35;;;2.42;;
77991;SDS011;67180;43.534;-5.652;2023-03-01T12:22:30;4.50;;;2.40;;
77991;SDS011;67180;43.534;-5.652;2023-03-01T12:25:03;3.38;;;1.80;;
77991;SDS011;67180;43.534;-5.652;2023-03-01T12:35:47;6.95;;;6.05;;
77991;SDS011;67180;43.534;-5.652;2023-03-01T12:43:38;2.60;;;1.60;;
77991;SDS011;67180;43.534;-5.652;2023-03-01T12:48:47;1.73;;;1.20;;
77991;SDS011;67180;43.534;-5.652;2023-03-01T12:51:17;1.92;;;1.20;;
77991;SDS011;67180;43.534;-5.652;2023-03-01T12:53:46;1.25;;;1.02;;
77991;SDS011;67180;43.534;-5.652;2023-03-01T12:56:16;2.17;;;1.00;;
77991;SDS011;67180;43.534;-5.652;2023-03-01T12:58:49;1.67;;;1.20;;
77991;SDS011;67180;43.534;-5.652;2023-03-01T13:01:39;2.88;;;1.60;;
77991;SDS011;67180;43.534;-5.652;2023-03-01T13:04:08;2.00;;;1.25;;
77991;SDS011;67180;43.534;-5.652;2023-03-01T13:06:43;2.28;;;1.17;;
77991;SDS011;67180;43.534;-5.652;2023-03-01T13:11:56;1.98;;;1.23;;
77991;SDS011;67180;43.534;-5.652;2023-03-01T13:17:07;3.63;;;1.70;;
77991;SDS011;67180;43.534;-5.652;2023-03-01T13:19:58;2.03;;;1.20;;
77991;SDS011;67180;43.534;-5.652;2023-03-01T13:22:25;1.52;;;1.30;;
77991;SDS011;67180;43.534;-5.652;2023-03-01T13:25:00;4.90;;;2.40;;
77991;SDS011;67180;43.534;-5.652;2023-03-01T13:27:27;2.08;;;1.60;;
77991;SDS011;67180;43.534;-5.652;2023-03-01T13:29:56;2.00;;;1.40;;
77991;SDS011;67180;43.534;-5.652;2023-03-01T13:32:29;2.80;;;1.60;;
77991;SDS011;67180;43.534;-5.652;2023-03-01T13:34:59;2.65;;;1.15;;
77991;SDS011;67180;43.534;-5.652;2023-03-01T13:37:27;1.30;;;1.10;;
77991;SDS011;67180;43.534;-5.652;2023-03-01T13:39:55;1.70;;;1.10;;
77991;SDS011;67180;43.534;-5.652;2023-03-01T13:45:03;1.60;;;1.27;;
77991;SDS011;67180;43.534;-5.652;2023-03-01T13:47:30;4.85;;;1.10;;
77991;SDS011;67180;43.534;-5.652;2023-03-01T13:49:57;1.60;;;1.30;;
77991;SDS011;67180;43.534;-5.652;2023-03-01T13:55:06;1.77;;;1.10;;
77991;SDS011;67180;43.534;-5.652;2023-03-01T13:57:41;3.17;;;1.60;;
77991;SDS011;67180;43.534;-5.652;2023-03-01T14:00:25;3.17;;;1.70;;
77991;SDS011;67180;43.534;-5.652;2023-03-01T14:05:32;6.38;;;4.45;;
77991;SDS011;67180;43.534;-5.652;2023-03-01T14:08:01;4.00;;;2.90;;
77991;SDS011;67180;43.534;-5.652;2023-03-01T14:10:30;4.88;;;2.10;;
77991;SDS011;67180;43.534;-5.652;2023-03-01T14:13:02;2.65;;;1.60;;
77991;SDS011;67180;43.534;-5.652;2023-03-01T14:15:35;1.85;;;1.40;;
77991;SDS011;67180;43.534;-5.652;2023-03-01T14:18:06;2.58;;;1.30;;
77991;SDS011;67180;43.534;-5.652;2023-03-01T14:20:39;2.60;;;1.67;;
77991;SDS011;67180;43.534;-5.652;2023-03-01T14:23:10;6.75;;;2.13;;
77991;SDS011;67180;43.534;-5.652;2023-03-01T14:25:38;7.07;;;3.75;;
77991;SDS011;67180;43.534;-5.652;2023-03-01T14:28:20;6.32;;;4.13;;
77991;SDS011;67180;43.534;-5.652;2023-03-01T14:30:48;7.93;;;5.60;;
77991;SDS011;67180;43.534;-5.652;2023-03-01T14:33:19;11.10;;;4.50;;
77991;SDS011;67180;43.534;-5.652;2023-03-01T14:35:54;9.02;;;5.78;;
77991;SDS011;67180;43.534;-5.652;2023-03-01T14:38:23;5.20;;;4.63;;
77991;SDS011;67180;43.534;-5.652;2023-03-01T14:40:51;8.98;;;3.95;;
77991;SDS011;67180;43.534;-5.652;2023-03-01T14:43:19;5.10;;;3.42;;
77991;SDS011;67180;43.534;-5.652;2023-03-01T14:45:48;7.03;;;3.97;;
77991;SDS011;67180;43.534;-5.652;2023-03-01T14:48:15;6.97;;;4.60;;
77991;SDS011;67180;43.534;-5.652;2023-03-01T14:50:42;8.07;;;5.18;;
77991;SDS011;67180;43.534;-5.652;2023-03-01T14:53:15;8.95;;;6.40;;
77991;SDS011;67180;43.534;-5.652;2023-03-01T14:55:42;16.45;;;8.88;;
77991;SDS011;67180;43.534;-5.652;2023-03-01T14:58:14;11.63;;;6.47;;
77991;SDS011;67180;43.534;-5.652;2023-03-01T15:00:45;10.73;;;6.75;;
77991;SDS011;67180;43.534;-5.652;2023-03-01T15:03:14;9.15;;;6.20;;
77991;SDS011;67180;43.534;-5.652;2023-03-01T15:05:43;8.43;;;4.07;;
77991;SDS011;67180;43.534;-5.652;2023-03-01T15:08:16;8.70;;;4.80;;
77991;SDS011;67180;43.534;-5.652;2023-03-01T15:10:55;8.75;;;5.00;;
77991;SDS011;67180;43.534;-5.652;2023-03-01T15:13:22;9.52;;;5.47;;
77991;SDS011;67180;43.534;-5.652;2023-03-01T15:15:49;10.75;;;4.80;;
77991;SDS011;67180;43.534;-5.652;2023-03-01T15:18:19;7.28;;;4.03;;
77991;SDS011;67180;43.534;-5.652;2023-03-01T15:20:46;7.25;;;4.45;;
77991;SDS011;67180;43.534;-5.652;2023-03-01T15:23:17;8.32;;;3.65;;
77991;SDS011;67180;43.534;-5.652;2023-03-01T15:25:44;8.05;;;3.08;;
77991;SDS011;67180;43.534;-5.652;2023-03-01T15:28:12;6.50;;;2.85;;
77991;SDS011;67180;43.534;-5.652;2023-03-01T15:30:43;10.50;;;3.47;;
77991;SDS011;67180;43.534;-5.652;2023-03-01T15:33:29;8.13;;;3.55;;
77991;SDS011;67180;43.534;-5.652;2023-03-01T15:35:57;4.53;;;2.50;;